createdAt,value
2023-01-19T00:00:12.134Z,-3.28
2023-01-19T00:03:04.454Z,-3.22
2023-01-19T00:05:48.052Z,-3.18
2023-01-19T00:08:39.434Z,-3.17
2023-01-19T00:11:30.130Z,-3.17
2023-01-19T00:14:20.926Z,-3.16
2023-01-19T00:17:11.785Z,-3.16
2023-01-19T00:19:53.152Z,-3.17
2023-01-19T00:22:43.778Z,-3.15
2023-01-19T00:25:34.739Z,-3.16
2023-01-19T00:28:25.411Z,-3.16
2023-01-19T00:31:16.361Z,-3.19
2023-01-19T00:33:55.653Z,-3.19
2023-01-19T00:36:46.468Z,-3.20
2023-01-19T00:39:37.346Z,-3.19
2023-01-19T00:42:45.074Z,-3.18
2023-01-19T00:45:28.877Z,-3.17
2023-01-19T00:48:19.626Z,-3.19
2023-01-19T00:51:10.454Z,-3.20
2023-01-19T00:54:05.001Z,-3.21
2023-01-19T00:56:55.738Z,-3.19
2023-01-19T00:59:46.615Z,-3.16
2023-01-19T01:02:37.630Z,-3.11
2023-01-19T01:05:28.590Z,-3.02
2023-01-19T01:08:19.169Z,-2.88
2023-01-19T01:11:09.915Z,-2.68
2023-01-19T01:14:00.572Z,-2.51
2023-01-19T01:16:40.642Z,-2.37
2023-01-19T01:19:11.586Z,-2.23
2023-01-19T01:22:01.326Z,-2.12
2023-01-19T01:24:52.018Z,-2.00
2023-01-19T01:27:43.377Z,-1.89
2023-01-19T01:30:34.093Z,-1.79
2023-01-19T01:33:40.009Z,-1.71
2023-01-19T01:36:33.507Z,-1.62
2023-01-19T01:39:24.529Z,-1.53
2023-01-19T01:42:20.915Z,-1.45
2023-01-19T01:45:30.031Z,-1.40
2023-01-19T01:48:15.153Z,-1.37
2023-01-19T01:51:21.122Z,-1.38
2023-01-19T01:54:18.264Z,-1.36
2023-01-19T01:56:52.428Z,-1.35
2023-01-19T01:59:47.730Z,-1.37
2023-01-19T02:02:40.193Z,-1.37
2023-01-19T02:05:22.475Z,-1.36
2023-01-19T02:08:26.911Z,-1.36
2023-01-19T02:11:27.586Z,-1.36
2023-01-19T02:13:58.186Z,-1.36
2023-01-19T02:16:39.389Z,-1.36
2023-01-19T02:19:36.993Z,-1.38
2023-01-19T02:22:25.908Z,-1.41
2023-01-19T02:24:59.796Z,-1.43
2023-01-19T02:27:30.443Z,-1.42
2023-01-19T02:30:21.742Z,-1.41
2023-01-19T02:33:12.443Z,-1.38
2023-01-19T02:36:03.367Z,-1.37
2023-01-19T02:38:45.789Z,-1.34
2023-01-19T02:41:31.844Z,-1.31
2023-01-19T02:44:24.890Z,-1.28
2023-01-19T02:47:15.827Z,-1.27
2023-01-19T02:50:01.758Z,-1.25
2023-01-19T02:52:56.963Z,-1.23
2023-01-19T02:55:54.593Z,-1.21
2023-01-19T02:58:51.312Z,-1.18
2023-01-19T03:02:01.889Z,-1.18
2023-01-19T03:05:09.355Z,-1.18
2023-01-19T03:08:09.469Z,-1.20
2023-01-19T03:11:00.442Z,-1.21
2023-01-19T03:13:55.526Z,-1.21
2023-01-19T03:16:48.981Z,-1.23
2023-01-19T03:19:37.555Z,-1.23
2023-01-19T03:22:30.561Z,-1.22
2023-01-19T03:25:23.884Z,-1.21
2023-01-19T03:28:07.957Z,-1.19
2023-01-19T03:31:03.883Z,-1.18
2023-01-19T03:33:48.810Z,-1.16
2023-01-19T03:36:43.291Z,-1.14
2023-01-19T03:39:35.224Z,-1.12
2023-01-19T03:42:21.376Z,-1.11
2023-01-19T03:45:15.239Z,-1.09
2023-01-19T03:48:07.326Z,-1.08
2023-01-19T03:50:58.203Z,-1.08
2023-01-19T03:53:49.961Z,-1.06
2023-01-19T03:56:40.637Z,-1.05
2023-01-19T03:59:31.297Z,-1.03
2023-01-19T04:02:22.389Z,-1.02
2023-01-19T04:05:14.462Z,-1.00
2023-01-19T04:08:05.270Z,-0.99
2023-01-19T04:10:38.920Z,-0.99
2023-01-19T04:13:09.347Z,-0.97
2023-01-19T04:16:03.785Z,-0.96
2023-01-19T04:18:54.649Z,-0.95
2023-01-19T04:21:28.458Z,-0.96
2023-01-19T04:24:01.620Z,-0.97
2023-01-19T04:26:42.251Z,-0.99
2023-01-19T04:29:32.758Z,-1.02
2023-01-19T04:32:23.417Z,-1.07
2023-01-19T04:35:14.068Z,-1.11
2023-01-19T04:37:57.548Z,-1.15
2023-01-19T04:40:49.911Z,-1.16
2023-01-19T04:43:40.992Z,-1.18
2023-01-19T04:46:31.870Z,-1.20
2023-01-19T04:49:22.947Z,-1.22
2023-01-19T04:52:13.653Z,-1.24
2023-01-19T04:55:05.010Z,-1.26
2023-01-19T04:57:56.039Z,-1.27
2023-01-19T05:00:37.606Z,-1.28
2023-01-19T05:03:28.420Z,-1.29
2023-01-19T05:06:12.796Z,-1.31
2023-01-19T05:09:03.608Z,-1.28
2023-01-19T05:11:54.310Z,-1.27
2023-01-19T05:14:27.992Z,-1.26
2023-01-19T05:17:18.641Z,-1.24
2023-01-19T05:20:15.716Z,-1.22
2023-01-19T05:23:07.121Z,-1.20
2023-01-19T05:26:00.755Z,-1.20
2023-01-19T05:28:51.435Z,-1.21
2023-01-19T05:31:42.180Z,-1.20
2023-01-19T05:34:25.709Z,-1.21
2023-01-19T05:37:16.457Z,-1.24
2023-01-19T05:40:09.570Z,-1.26
2023-01-19T05:42:49.590Z,-1.28
2023-01-19T05:45:41.097Z,-1.28
2023-01-19T05:48:30.259Z,-1.28
2023-01-19T05:51:21.028Z,-1.27
2023-01-19T05:54:13.332Z,-1.28
2023-01-19T05:57:04.889Z,-1.28
2023-01-19T05:59:44.905Z,-1.30
2023-01-19T06:02:35.650Z,-1.33
2023-01-19T06:05:10.056Z,-1.36
2023-01-19T06:07:48.657Z,-1.39
2023-01-19T06:10:35.647Z,-1.41
2023-01-19T06:13:06.259Z,-1.44
2023-01-19T06:15:37.551Z,-1.46
2023-01-19T06:18:11.093Z,-1.48
2023-01-19T06:20:47.170Z,-1.50
2023-01-19T06:23:30.407Z,-1.50
2023-01-19T06:26:14.255Z,-1.50
2023-01-19T06:29:05.153Z,-1.50
2023-01-19T06:31:46.814Z,-1.49
2023-01-19T06:34:38.509Z,-1.50
2023-01-19T06:37:30.729Z,-1.47
2023-01-19T06:40:21.683Z,-1.43
2023-01-19T06:43:12.986Z,-1.38
2023-01-19T06:46:04.973Z,-1.30
2023-01-19T06:48:55.998Z,-1.24
2023-01-19T06:51:46.623Z,-1.17
2023-01-19T06:54:37.299Z,-1.11
2023-01-19T06:57:21.387Z,-1.07
2023-01-19T07:00:14.845Z,-1.02
2023-01-19T07:03:06.683Z,-0.99
2023-01-19T07:05:49.939Z,-0.95
2023-01-19T07:08:20.321Z,-0.91
2023-01-19T07:11:25.849Z,-0.87
2023-01-19T07:13:51.463Z,-0.83
2023-01-19T07:16:33.340Z,-0.78
2023-01-19T07:19:24.373Z,-0.75
2023-01-19T07:22:04.956Z,-0.73
2023-01-19T07:24:35.729Z,-0.72
2023-01-19T07:27:28.698Z,-0.68
2023-01-19T07:30:18.759Z,-0.66
2023-01-19T07:33:09.598Z,-0.63
2023-01-19T07:36:00.397Z,-0.59
2023-01-19T07:38:51.206Z,-0.56
2023-01-19T07:41:42.005Z,-0.53
2023-01-19T07:44:32.911Z,-0.51
2023-01-19T07:47:23.713Z,-0.48
2023-01-19T07:50:16.018Z,-0.46
2023-01-19T07:53:12.030Z,-0.44
2023-01-19T07:55:58.229Z,-0.42
2023-01-19T07:58:41.969Z,-0.41
2023-01-19T08:01:32.881Z,-0.40
2023-01-19T08:04:23.934Z,-0.38
2023-01-19T08:07:15.198Z,-0.37
2023-01-19T08:10:06.646Z,-0.37
2023-01-19T08:12:56.159Z,-0.38
2023-01-19T08:15:49.804Z,-0.39
2023-01-19T08:18:40.789Z,-0.39
2023-01-19T08:21:33.459Z,-0.40
2023-01-19T08:24:21.389Z,-0.40
2023-01-19T08:27:12.293Z,-0.40
2023-01-19T08:30:03.660Z,-0.39
2023-01-19T08:32:58.212Z,-0.39
2023-01-19T08:35:51.744Z,-0.38
2023-01-19T08:38:44.756Z,-0.36
2023-01-19T08:41:35.518Z,-0.35
2023-01-19T08:44:25.991Z,-0.35
2023-01-19T08:47:08.482Z,-0.34
2023-01-19T08:49:59.312Z,-0.31
2023-01-19T08:52:50.299Z,-0.27
2023-01-19T08:55:32.331Z,-0.24
2023-01-19T08:58:06.291Z,-0.19
2023-01-19T09:00:57.158Z,-0.13
2023-01-19T09:03:47.979Z,-0.08
2023-01-19T09:06:38.889Z,-0.01
2023-01-19T09:09:29.735Z,0.07
2023-01-19T09:12:20.569Z,0.14
2023-01-19T09:15:12.395Z,0.19
2023-01-19T09:18:03.453Z,0.23
2023-01-19T09:21:02.216Z,0.25
2023-01-19T09:23:36.501Z,0.25
2023-01-19T09:26:27.225Z,0.27
2023-01-19T09:29:16.960Z,0.28
2023-01-19T09:31:58.670Z,0.32
2023-01-19T09:34:49.562Z,0.36
2023-01-19T09:37:40.399Z,0.38
2023-01-19T09:40:31.041Z,0.39
2023-01-19T09:43:36.977Z,0.40
2023-01-19T09:46:24.530Z,0.44
2023-01-19T09:49:11.270Z,0.46
2023-01-19T09:51:55.094Z,0.47
2023-01-19T09:54:52.892Z,0.48
2023-01-19T09:57:45.131Z,0.49
2023-01-19T10:00:36.340Z,0.47
2023-01-19T10:03:27.380Z,0.49
2023-01-19T10:06:19.069Z,0.54
2023-01-19T10:08:58.086Z,0.58
2023-01-19T10:11:53.098Z,0.59
2023-01-19T10:14:50.701Z,0.65
2023-01-19T10:17:56.679Z,0.66
2023-01-19T10:20:51.140Z,0.71
2023-01-19T10:23:45.833Z,0.76
2023-01-19T10:26:38.708Z,0.83
2023-01-19T10:29:35.413Z,0.89
2023-01-19T10:32:28.109Z,0.94
2023-01-19T10:35:24.548Z,0.97
2023-01-19T10:38:22.284Z,1.02
2023-01-19T10:41:19.373Z,1.09
2023-01-19T10:44:12.144Z,1.12
2023-01-19T10:47:03.363Z,1.17
2023-01-19T10:49:48.295Z,1.21
2023-01-19T10:52:37.216Z,1.18
2023-01-19T10:55:24.776Z,1.21
2023-01-19T10:58:30.182Z,1.25
2023-01-19T11:01:19.150Z,1.31
2023-01-19T11:04:29.780Z,1.35
2023-01-19T11:07:24.343Z,1.35
2023-01-19T11:10:24.046Z,1.36
2023-01-19T11:13:16.649Z,1.38
2023-01-19T11:15:59.622Z,1.39
2023-01-19T11:18:55.778Z,1.43
2023-01-19T11:21:36.171Z,1.46
2023-01-19T11:24:25.764Z,1.55
2023-01-19T11:27:18.882Z,1.64
2023-01-19T11:30:19.131Z,1.70
2023-01-19T11:32:50.241Z,1.76
2023-01-19T11:35:43.233Z,1.77
2023-01-19T11:38:27.098Z,1.72
2023-01-19T11:41:22.275Z,1.71
2023-01-19T11:44:21.123Z,1.78
2023-01-19T11:47:19.681Z,1.87
2023-01-19T11:50:07.324Z,1.93
2023-01-19T11:53:05.686Z,1.93
2023-01-19T11:55:58.807Z,1.94
2023-01-19T11:58:34.245Z,1.96
2023-01-19T12:01:30.409Z,1.89
2023-01-19T12:04:27.590Z,1.87
2023-01-19T12:07:30.602Z,1.81
2023-01-19T12:10:25.538Z,1.75
2023-01-19T12:13:00.116Z,1.73
2023-01-19T12:15:51.513Z,1.72
2023-01-19T12:18:47.273Z,1.73
2023-01-19T12:21:38.544Z,1.72
2023-01-19T12:24:24.656Z,1.71
2023-01-19T12:27:23.702Z,1.69
2023-01-19T12:30:21.118Z,1.66
2023-01-19T12:33:34.639Z,1.65
2023-01-19T12:36:41.629Z,1.63
2023-01-19T12:39:26.521Z,1.62
2023-01-19T12:42:21.271Z,1.61
2023-01-19T12:45:18.394Z,1.62
2023-01-19T12:47:59.253Z,1.62
2023-01-19T12:50:40.616Z,1.64
2023-01-19T12:53:31.795Z,1.66
2023-01-19T12:56:31.185Z,1.68
2023-01-19T12:59:29.177Z,1.73
2023-01-19T13:02:46.563Z,1.77
2023-01-19T13:06:00.012Z,1.80
2023-01-19T13:09:02.016Z,1.86
2023-01-19T13:12:23.707Z,1.92
2023-01-19T13:15:35.624Z,1.96
2023-01-19T13:18:29.539Z,1.96
2023-01-19T13:21:30.440Z,1.95
2023-01-19T13:24:23.382Z,1.95
2023-01-19T13:27:15.025Z,1.95
2023-01-19T13:29:57.741Z,1.94
2023-01-19T13:32:48.066Z,1.94
2023-01-19T13:35:39.003Z,1.95
2023-01-19T13:38:32.865Z,1.96
2023-01-19T13:41:20.108Z,1.98
2023-01-19T13:44:14.918Z,1.95
2023-01-19T13:47:09.184Z,1.93
2023-01-19T13:50:02.229Z,1.90
2023-01-19T13:52:46.230Z,1.90
2023-01-19T13:55:37.106Z,1.92
2023-01-19T13:58:26.248Z,1.95
2023-01-19T14:01:29.000Z,1.97
2023-01-19T14:04:32.022Z,1.98
2023-01-19T14:07:26.437Z,2.02
2023-01-19T14:10:18.523Z,2.04
2023-01-19T14:13:17.403Z,2.05
2023-01-19T14:16:02.876Z,2.05
2023-01-19T14:19:04.778Z,2.06
2023-01-19T14:22:03.556Z,2.06
2023-01-19T14:24:54.586Z,2.01
2023-01-19T14:27:45.314Z,1.98
2023-01-19T14:30:36.907Z,1.99
2023-01-19T14:33:35.733Z,1.99
2023-01-19T14:36:30.720Z,1.99
2023-01-19T14:39:26.312Z,1.96
2023-01-19T14:42:19.718Z,1.93
2023-01-19T14:45:01.152Z,1.89
2023-01-19T14:47:44.717Z,1.86
2023-01-19T14:50:38.689Z,1.81
2023-01-19T14:53:29.971Z,1.77
2023-01-19T14:56:29.873Z,1.72
2023-01-19T15:00:07.195Z,1.68
2023-01-19T15:03:46.105Z,1.66
2023-01-19T15:06:28.247Z,1.61
2023-01-19T15:09:19.090Z,1.56
2023-01-19T15:12:17.356Z,1.54
2023-01-19T15:15:16.783Z,1.52
2023-01-19T15:18:13.107Z,1.49
2023-01-19T15:20:53.222Z,1.45
2023-01-19T15:23:35.320Z,1.42
2023-01-19T15:26:14.867Z,1.41
2023-01-19T15:28:58.582Z,1.39
2023-01-19T15:31:40.295Z,1.35
2023-01-19T15:34:31.692Z,1.34
2023-01-19T15:37:05.448Z,1.32
2023-01-19T15:39:46.204Z,1.29
2023-01-19T15:42:36.826Z,1.22
2023-01-19T15:45:39.777Z,1.24
2023-01-19T15:48:30.932Z,1.20
2023-01-19T15:51:05.541Z,1.16
2023-01-19T15:53:56.673Z,1.11
2023-01-19T15:56:47.496Z,1.04
2023-01-19T16:00:27.037Z,0.96
2023-01-19T16:02:58.299Z,0.87
2023-01-19T16:05:49.372Z,0.80
2023-01-19T16:08:34.151Z,0.72
2023-01-19T16:11:25.187Z,0.66
2023-01-19T16:13:55.989Z,0.60
2023-01-19T16:16:46.989Z,0.55
2023-01-19T16:19:48.017Z,0.49
2023-01-19T16:22:27.812Z,0.44
2023-01-19T16:25:02.050Z,0.40
2023-01-19T16:27:45.707Z,0.37
2023-01-19T16:30:20.398Z,0.34
2023-01-19T16:33:01.562Z,0.29
2023-01-19T16:35:52.560Z,0.28
2023-01-19T16:38:43.418Z,0.25
2023-01-19T16:41:24.450Z,0.22
2023-01-19T16:44:17.428Z,0.20
2023-01-19T16:47:08.436Z,0.17
2023-01-19T16:49:59.298Z,0.16
2023-01-19T16:52:50.653Z,0.14
2023-01-19T16:55:43.788Z,0.13
2023-01-19T16:58:37.525Z,0.11
2023-01-19T17:01:29.981Z,0.10
2023-01-19T17:04:21.563Z,0.08
2023-01-19T17:07:11.272Z,0.07
2023-01-19T17:09:44.276Z,0.06
2023-01-19T17:12:26.363Z,0.06
2023-01-19T17:15:08.919Z,0.05
2023-01-19T17:17:59.973Z,0.02
2023-01-19T17:20:50.926Z,0.01
2023-01-19T17:23:45.726Z,-0.01
2023-01-19T17:26:37.076Z,-0.02
2023-01-19T17:29:27.063Z,-0.05
2023-01-19T17:32:08.328Z,-0.06
2023-01-19T17:34:59.041Z,-0.07
2023-01-19T17:37:53.383Z,-0.09
2023-01-19T17:40:35.188Z,-0.10
2023-01-19T17:43:26.149Z,-0.12
2023-01-19T17:46:17.615Z,-0.13
2023-01-19T17:49:09.743Z,-0.16
2023-01-19T17:51:43.205Z,-0.16
2023-01-19T17:54:34.100Z,-0.18
2023-01-19T17:57:24.919Z,-0.19
2023-01-19T18:00:17.713Z,-0.20
2023-01-19T18:03:08.514Z,-0.22
2023-01-19T18:05:56.887Z,-0.23
2023-01-19T18:08:49.002Z,-0.23
2023-01-19T18:11:34.028Z,-0.25
2023-01-19T18:14:15.193Z,-0.24
2023-01-19T18:17:06.010Z,-0.26
2023-01-19T18:19:56.860Z,-0.27
2023-01-19T18:22:47.837Z,-0.28
2023-01-19T18:25:29.577Z,-0.29
2023-01-19T18:28:13.057Z,-0.29
2023-01-19T18:31:07.323Z,-0.30
2023-01-19T18:33:48.706Z,-0.29
2023-01-19T18:36:38.301Z,-0.30
2023-01-19T18:39:20.243Z,-0.29
2023-01-19T18:42:11.434Z,-0.29
2023-01-19T18:45:02.412Z,-0.29
2023-01-19T18:47:36.624Z,-0.28
2023-01-19T18:50:06.141Z,-0.27
2023-01-19T18:52:57.835Z,-0.27
2023-01-19T18:55:37.484Z,-0.28
2023-01-19T18:58:29.239Z,-0.29
2023-01-19T19:01:31.496Z,-0.31
2023-01-19T19:04:23.568Z,-0.32
2023-01-19T19:07:03.169Z,-0.33
2023-01-19T19:09:47.948Z,-0.34
2023-01-19T19:12:32.785Z,-0.34
2023-01-19T19:15:03.452Z,-0.34
2023-01-19T19:17:45.437Z,-0.33
2023-01-19T19:20:38.387Z,-0.33
2023-01-19T19:23:12.776Z,-0.30
2023-01-19T19:26:08.087Z,-0.29
2023-01-19T19:28:59.532Z,-0.28
2023-01-19T19:31:52.472Z,-0.27
2023-01-19T19:34:34.119Z,-0.27
2023-01-19T19:37:24.952Z,-0.25
2023-01-19T19:40:16.287Z,-0.25
2023-01-19T19:43:07.179Z,-0.25
2023-01-19T19:46:02.442Z,-0.24
2023-01-19T19:49:21.437Z,-0.25
2023-01-19T19:52:05.101Z,-0.26
2023-01-19T19:54:56.163Z,-0.27
2023-01-19T19:57:47.644Z,-0.27
2023-01-19T20:00:32.712Z,-0.26
2023-01-19T20:03:26.563Z,-0.25
2023-01-19T20:06:05.541Z,-0.25
2023-01-19T20:08:52.208Z,-0.24
2023-01-19T20:11:44.157Z,-0.24
2023-01-19T20:14:33.763Z,-0.23
2023-01-19T20:17:24.938Z,-0.24
2023-01-19T20:19:55.656Z,-0.25
2023-01-19T20:22:36.752Z,-0.26
2023-01-19T20:25:09.111Z,-0.28
2023-01-19T20:27:39.981Z,-0.29
2023-01-19T20:30:14.567Z,-0.30
2023-01-19T20:32:48.239Z,-0.32
2023-01-19T20:35:39.334Z,-0.33
2023-01-19T20:38:30.163Z,-0.35
2023-01-19T20:41:22.214Z,-0.37
2023-01-19T20:44:14.985Z,-0.38
2023-01-19T20:46:56.925Z,-0.41
2023-01-19T20:49:47.823Z,-0.43
2023-01-19T20:52:18.416Z,-0.45
2023-01-19T20:54:48.967Z,-0.47
2023-01-19T20:57:22.945Z,-0.49
2023-01-19T21:00:09.437Z,-0.52
2023-01-19T21:02:49.304Z,-0.55
2023-01-19T21:05:19.935Z,-0.56
2023-01-19T21:08:10.865Z,-0.58
2023-01-19T21:11:01.748Z,-0.60
2023-01-19T21:13:56.048Z,-0.63
2023-01-19T21:16:30.301Z,-0.64
2023-01-19T21:19:04.643Z,-0.65
2023-01-19T21:21:56.314Z,-0.66
2023-01-19T21:24:47.047Z,-0.67
2023-01-19T21:27:30.494Z,-0.66
2023-01-19T21:30:22.485Z,-0.67
2023-01-19T21:33:13.726Z,-0.67
2023-01-19T21:35:52.562Z,-0.66
2023-01-19T21:38:43.398Z,-0.66
2023-01-19T21:41:36.106Z,-0.66
2023-01-19T21:44:26.810Z,-0.65
2023-01-19T21:47:02.284Z,-0.63
2023-01-19T21:49:53.418Z,-0.61
2023-01-19T21:52:37.239Z,-0.60
2023-01-19T21:55:28.331Z,-0.59
2023-01-19T21:58:01.460Z,-0.59
2023-01-19T22:00:52.333Z,-0.59
2023-01-19T22:03:43.411Z,-0.59
2023-01-19T22:06:24.235Z,-0.59
2023-01-19T22:08:55.545Z,-0.59
2023-01-19T22:11:37.198Z,-0.59
2023-01-19T22:14:21.533Z,-0.59
2023-01-19T22:17:12.423Z,-0.59
2023-01-19T22:20:03.170Z,-0.59
2023-01-19T22:22:46.438Z,-0.58
2023-01-19T22:25:37.169Z,-0.56
2023-01-19T22:28:08.547Z,-0.57
2023-01-19T22:30:39.372Z,-0.56
2023-01-19T22:33:22.602Z,-0.57
2023-01-19T22:35:55.967Z,-0.57
2023-01-19T22:38:26.359Z,-0.58
2023-01-19T22:41:22.158Z,-0.58
2023-01-19T22:43:55.320Z,-0.60
2023-01-19T22:46:27.656Z,-0.59
2023-01-19T22:49:19.297Z,-0.60
2023-01-19T22:51:48.286Z,-0.59
2023-01-19T22:54:38.320Z,-0.59
2023-01-19T22:57:28.875Z,-0.60
2023-01-19T23:00:16.064Z,-0.59
2023-01-19T23:02:56.840Z,-0.59
2023-01-19T23:05:27.415Z,-0.59
2023-01-19T23:08:08.763Z,-0.59
2023-01-19T23:10:59.476Z,-0.59
2023-01-19T23:13:44.637Z,-0.59
2023-01-19T23:16:33.865Z,-0.59
2023-01-19T23:19:04.925Z,-0.58
2023-01-19T23:21:37.006Z,-0.59
2023-01-19T23:24:27.810Z,-0.59
2023-01-19T23:27:11.883Z,-0.58
2023-01-19T23:29:56.082Z,-0.59
2023-01-19T23:32:39.735Z,-0.58
2023-01-19T23:35:11.786Z,-0.58
2023-01-19T23:38:02.700Z,-0.58
2023-01-19T23:40:53.303Z,-0.57
2023-01-19T23:43:44.140Z,-0.58
2023-01-19T23:46:16.354Z,-0.57
2023-01-19T23:49:07.235Z,-0.58
2023-01-19T23:51:41.871Z,-0.58
2023-01-19T23:54:23.272Z,-0.59
2023-01-19T23:57:14.135Z,-0.60
2023-01-19T23:59:54.949Z,-0.61
